sensor_id;sensor_type;location;lat;lon;timestamp;P1;durP1;ratioP1;P2;durP2;ratioP2
72394;SDS011;60384;48.152;11.614;2023-11-18T09:35:46;1.92;;;1.02;;
72394;SDS011;60384;48.152;11.614;2023-11-18T09:38:48;4.32;;;1.23;;
72394;SDS011;60384;48.152;11.614;2023-11-18T09:41:50;7.40;;;2.40;;
72394;SDS011;60384;48.152;11.614;2023-11-18T09:44:53;5.65;;;2.45;;
72394;SDS011;60384;48.152;11.614;2023-11-18T09:47:55;4.82;;;2.50;;
72394;SDS011;60384;48.152;11.614;2023-11-18T09:51:03;6.13;;;2.15;;
72394;SDS011;60384;48.152;11.614;2023-11-18T09:57:44;2.30;;;1.05;;
72394;SDS011;60384;48.152;11.614;2023-11-18T10:01:00;2.67;;;0.90;;
72394;SDS011;60384;48.152;11.614;2023-11-18T10:04:04;5.18;;;2.40;;
72394;SDS011;60384;48.152;11.614;2023-11-18T10:07:08;4.82;;;1.90;;
72394;SDS011;60384;48.152;11.614;2023-11-18T10:10:12;4.47;;;1.70;;
72394;SDS011;60384;48.152;11.614;2023-11-18T10:13:15;3.15;;;1.48;;
72394;SDS011;60384;48.152;11.614;2023-11-18T10:16:22;1.92;;;0.80;;
72394;SDS011;60384;48.152;11.614;2023-11-18T10:23:09;3.58;;;1.45;;
72394;SDS011;60384;48.152;11.614;2023-11-18T10:26:11;4.20;;;1.55;;
72394;SDS011;60384;48.152;11.614;2023-11-18T10:29:15;2.95;;;1.52;;
72394;SDS011;60384;48.152;11.614;2023-11-18T10:32:18;4.40;;;1.80;;
72394;SDS011;60384;48.152;11.614;2023-11-18T10:35:22;3.05;;;1.52;;
72394;SDS011;60384;48.152;11.614;2023-11-18T10:38:29;4.55;;;1.70;;
72394;SDS011;60384;48.152;11.614;2023-11-18T10:41:31;4.57;;;1.80;;
72394;SDS011;60384;48.152;11.614;2023-11-18T10:44:37;3.58;;;1.60;;
72394;SDS011;60384;48.152;11.614;2023-11-18T10:47:42;3.58;;;1.23;;
72394;SDS011;60384;48.152;11.614;2023-11-18T10:50:57;3.63;;;1.40;;
72394;SDS011;60384;48.152;11.614;2023-11-18T10:54:02;1.70;;;1.20;;
72394;SDS011;60384;48.152;11.614;2023-11-18T10:57:14;2.28;;;1.30;;
72394;SDS011;60384;48.152;11.614;2023-11-18T11:03:52;3.25;;;1.40;;
72394;SDS011;60384;48.152;11.614;2023-11-18T11:06:57;2.50;;;1.20;;
72394;SDS011;60384;48.152;11.614;2023-11-18T11:10:03;2.80;;;1.50;;
72394;SDS011;60384;48.152;11.614;2023-11-18T11:13:05;3.60;;;1.25;;
72394;SDS011;60384;48.152;11.614;2023-11-18T11:16:12;3.13;;;1.40;;
72394;SDS011;60384;48.152;11.614;2023-11-18T11:19:24;2.47;;;1.25;;
72394;SDS011;60384;48.152;11.614;2023-11-18T11:22:34;2.75;;;1.30;;
72394;SDS011;60384;48.152;11.614;2023-11-18T11:25:50;1.85;;;1.20;;
72394;SDS011;60384;48.152;11.614;2023-11-18T11:29:09;2.35;;;1.20;;
72394;SDS011;60384;48.152;11.614;2023-11-18T11:32:26;2.78;;;1.13;;
72394;SDS011;60384;48.152;11.614;2023-11-18T11:35:40;1.35;;;0.98;;
72394;SDS011;60384;48.152;11.614;2023-11-18T11:38:44;2.80;;;1.27;;
72394;SDS011;60384;48.152;11.614;2023-11-18T11:41:51;2.22;;;1.20;;
72394;SDS011;60384;48.152;11.614;2023-11-18T11:44:54;3.00;;;1.08;;
72394;SDS011;60384;48.152;11.614;2023-11-18T11:47:59;2.47;;;1.20;;
72394;SDS011;60384;48.152;11.614;2023-11-18T11:51:20;2.08;;;1.10;;
72394;SDS011;60384;48.152;11.614;2023-11-18T11:54:27;2.88;;;1.20;;
72394;SDS011;60384;48.152;11.614;2023-11-18T11:57:40;1.92;;;1.00;;
72394;SDS011;60384;48.152;11.614;2023-11-18T12:00:45;1.80;;;1.00;;
72394;SDS011;60384;48.152;11.614;2023-11-18T12:03:48;2.78;;;1.00;;
72394;SDS011;60384;48.152;11.614;2023-11-18T12:06:54;2.38;;;1.10;;
72394;SDS011;60384;48.152;11.614;2023-11-18T12:09:59;1.23;;;0.93;;
72394;SDS011;60384;48.152;11.614;2023-11-18T12:13:08;1.88;;;1.17;;
72394;SDS011;60384;48.152;11.614;2023-11-18T12:16:16;1.80;;;0.90;;
72394;SDS011;60384;48.152;11.614;2023-11-18T12:19:30;2.25;;;1.17;;
72394;SDS011;60384;48.152;11.614;2023-11-18T12:29:45;5.07;;;1.40;;
72394;SDS011;60384;48.152;11.614;2023-11-18T12:33:00;2.85;;;1.10;;
72394;SDS011;60384;48.152;11.614;2023-11-18T12:43:31;1.75;;;0.98;;
72394;SDS011;60384;48.152;11.614;2023-11-18T12:46:50;2.95;;;1.30;;
72394;SDS011;60384;48.152;11.614;2023-11-18T12:49:55;3.40;;;1.30;;
72394;SDS011;60384;48.152;11.614;2023-11-18T12:52:57;1.55;;;0.77;;
72394;SDS011;60384;48.152;11.614;2023-11-18T12:55:59;2.90;;;1.30;;
72394;SDS011;60384;48.152;11.614;2023-11-18T12:59:02;2.60;;;1.02;;
72394;SDS011;60384;48.152;11.614;2023-11-18T13:02:08;3.05;;;1.42;;
72394;SDS011;60384;48.152;11.614;2023-11-18T13:05:13;4.22;;;1.30;;
72394;SDS011;60384;48.152;11.614;2023-11-18T13:08:15;3.55;;;1.30;;
72394;SDS011;60384;48.152;11.614;2023-11-18T13:11:17;2.78;;;0.93;;
72394;SDS011;60384;48.152;11.614;2023-11-18T13:14:19;3.55;;;1.40;;
72394;SDS011;60384;48.152;11.614;2023-11-18T13:17:27;2.35;;;1.08;;
72394;SDS011;60384;48.152;11.614;2023-11-18T13:20:30;2.55;;;1.20;;
72394;SDS011;60384;48.152;11.614;2023-11-18T13:23:35;1.27;;;0.85;;
72394;SDS011;60384;48.152;11.614;2023-11-18T13:26:37;3.75;;;1.40;;
72394;SDS011;60384;48.152;11.614;2023-11-18T13:29:43;5.38;;;1.38;;
72394;SDS011;60384;48.152;11.614;2023-11-18T13:32:49;2.00;;;1.17;;
72394;SDS011;60384;48.152;11.614;2023-11-18T13:35:52;3.00;;;1.20;;
72394;SDS011;60384;48.152;11.614;2023-11-18T13:38:55;3.20;;;1.45;;
72394;SDS011;60384;48.152;11.614;2023-11-18T13:41:57;2.63;;;1.13;;
72394;SDS011;60384;48.152;11.614;2023-11-18T13:44:59;2.90;;;1.30;;
72394;SDS011;60384;48.152;11.614;2023-11-18T13:48:02;2.70;;;1.17;;
72394;SDS011;60384;48.152;11.614;2023-11-18T13:51:05;1.77;;;1.10;;
72394;SDS011;60384;48.152;11.614;2023-11-18T13:54:08;2.05;;;1.23;;
72394;SDS011;60384;48.152;11.614;2023-11-18T13:57:10;3.60;;;1.35;;
72394;SDS011;60384;48.152;11.614;2023-11-18T14:00:13;3.00;;;1.30;;
72394;SDS011;60384;48.152;11.614;2023-11-18T14:03:18;5.68;;;1.52;;
72394;SDS011;60384;48.152;11.614;2023-11-18T14:06:21;4.25;;;1.30;;
72394;SDS011;60384;48.152;11.614;2023-11-18T14:12:25;3.22;;;1.30;;
72394;SDS011;60384;48.152;11.614;2023-11-18T14:15:28;3.83;;;1.40;;
72394;SDS011;60384;48.152;11.614;2023-11-18T14:21:33;2.67;;;1.20;;
72394;SDS011;60384;48.152;11.614;2023-11-18T14:24:34;2.22;;;1.17;;
72394;SDS011;60384;48.152;11.614;2023-11-18T14:27:36;4.45;;;1.70;;
72394;SDS011;60384;48.152;11.614;2023-11-18T14:30:38;6.45;;;1.60;;
72394;SDS011;60384;48.152;11.614;2023-11-18T14:33:42;3.90;;;1.50;;
72394;SDS011;60384;48.152;11.614;2023-11-18T14:36:44;4.03;;;1.60;;
72394;SDS011;60384;48.152;11.614;2023-11-18T14:39:46;3.97;;;1.50;;
72394;SDS011;60384;48.152;11.614;2023-11-18T14:42:48;3.67;;;1.52;;
72394;SDS011;60384;48.152;11.614;2023-11-18T14:45:50;4.18;;;1.60;;
72394;SDS011;60384;48.152;11.614;2023-11-18T14:48:53;4.65;;;1.70;;
72394;SDS011;60384;48.152;11.614;2023-11-18T14:51:56;5.15;;;1.77;;
72394;SDS011;60384;48.152;11.614;2023-11-18T14:54:58;3.97;;;1.60;;
72394;SDS011;60384;48.152;11.614;2023-11-18T14:58:01;3.03;;;1.48;;
72394;SDS011;60384;48.152;11.614;2023-11-18T15:01:04;2.75;;;1.30;;
72394;SDS011;60384;48.152;11.614;2023-11-18T15:04:12;3.25;;;1.33;;
72394;SDS011;60384;48.152;11.614;2023-11-18T15:07:14;1.42;;;1.10;;
72394;SDS011;60384;48.152;11.614;2023-11-18T15:10:16;5.13;;;1.50;;
72394;SDS011;60384;48.152;11.614;2023-11-18T15:13:21;3.50;;;1.50;;
72394;SDS011;60384;48.152;11.614;2023-11-18T15:16:23;3.63;;;1.55;;
72394;SDS011;60384;48.152;11.614;2023-11-18T15:19:27;4.78;;;1.60;;
72394;SDS011;60384;48.152;11.614;2023-11-18T15:22:28;3.67;;;1.42;;
72394;SDS011;60384;48.152;11.614;2023-11-18T15:25:30;5.35;;;1.55;;
72394;SDS011;60384;48.152;11.614;2023-11-18T15:28:32;3.50;;;1.48;;
72394;SDS011;60384;48.152;11.614;2023-11-18T15:31:35;3.60;;;1.50;;
72394;SDS011;60384;48.152;11.614;2023-11-18T15:34:38;4.45;;;1.75;;
72394;SDS011;60384;48.152;11.614;2023-11-18T15:37:40;5.18;;;1.70;;
72394;SDS011;60384;48.152;11.614;2023-11-18T15:43:44;3.50;;;1.57;;
72394;SDS011;60384;48.152;11.614;2023-11-18T15:46:47;5.35;;;1.63;;
72394;SDS011;60384;48.152;11.614;2023-11-18T15:49:51;4.47;;;1.52;;
72394;SDS011;60384;48.152;11.614;2023-11-18T15:52:53;5.68;;;1.60;;
72394;SDS011;60384;48.152;11.614;2023-11-18T15:55:54;4.53;;;1.77;;
72394;SDS011;60384;48.152;11.614;2023-11-18T15:58:56;4.25;;;1.65;;
72394;SDS011;60384;48.152;11.614;2023-11-18T16:01:58;4.85;;;1.70;;
72394;SDS011;60384;48.152;11.614;2023-11-18T16:05:02;3.72;;;1.45;;
72394;SDS011;60384;48.152;11.614;2023-11-18T16:08:04;5.57;;;1.83;;
72394;SDS011;60384;48.152;11.614;2023-11-18T16:11:07;4.22;;;1.50;;
72394;SDS011;60384;48.152;11.614;2023-11-18T16:14:10;3.47;;;1.60;;
72394;SDS011;60384;48.152;11.614;2023-11-18T16:17:12;4.05;;;1.83;;
72394;SDS011;60384;48.152;11.614;2023-11-18T16:20:16;3.85;;;1.60;;
72394;SDS011;60384;48.152;11.614;2023-11-18T16:23:18;4.95;;;1.70;;
72394;SDS011;60384;48.152;11.614;2023-11-18T16:26:21;5.10;;;1.50;;
72394;SDS011;60384;48.152;11.614;2023-11-18T16:29:23;4.07;;;1.55;;
72394;SDS011;60384;48.152;11.614;2023-11-18T16:32:25;3.97;;;1.70;;
72394;SDS011;60384;48.152;11.614;2023-11-18T16:35:28;4.80;;;1.80;;
72394;SDS011;60384;48.152;11.614;2023-11-18T16:38:30;4.35;;;1.60;;
72394;SDS011;60384;48.152;11.614;2023-11-18T16:41:32;4.78;;;1.75;;
72394;SDS011;60384;48.152;11.614;2023-11-18T16:44:34;6.63;;;2.20;;
72394;SDS011;60384;48.152;11.614;2023-11-18T16:50:40;4.20;;;1.75;;
72394;SDS011;60384;48.152;11.614;2023-11-18T16:53:43;5.15;;;2.40;;
72394;SDS011;60384;48.152;11.614;2023-11-18T16:56:45;6.15;;;2.10;;
72394;SDS011;60384;48.152;11.614;2023-11-18T16:59:47;4.50;;;1.80;;
72394;SDS011;60384;48.152;11.614;2023-11-18T17:02:50;6.13;;;1.98;;
72394;SDS011;60384;48.152;11.614;2023-11-18T17:05:56;4.15;;;1.70;;
72394;SDS011;60384;48.152;11.614;2023-11-18T17:08:57;4.45;;;1.88;;
72394;SDS011;60384;48.152;11.614;2023-11-18T17:12:00;4.13;;;1.98;;
72394;SDS011;60384;48.152;11.614;2023-11-18T17:15:03;4.47;;;1.88;;
72394;SDS011;60384;48.152;11.614;2023-11-18T17:18:06;6.68;;;2.10;;
72394;SDS011;60384;48.152;11.614;2023-11-18T17:21:09;6.47;;;2.40;;
72394;SDS011;60384;48.152;11.614;2023-11-18T17:24:11;5.45;;;2.03;;
72394;SDS011;60384;48.152;11.614;2023-11-18T17:27:13;3.00;;;1.50;;
72394;SDS011;60384;48.152;11.614;2023-11-18T17:30:15;4.25;;;1.80;;
72394;SDS011;60384;48.152;11.614;2023-11-18T17:33:17;4.68;;;2.00;;
72394;SDS011;60384;48.152;11.614;2023-11-18T17:36:21;3.65;;;1.73;;
72394;SDS011;60384;48.152;11.614;2023-11-18T17:39:23;3.63;;;1.73;;
72394;SDS011;60384;48.152;11.614;2023-11-18T17:42:25;4.50;;;1.83;;
72394;SDS011;60384;48.152;11.614;2023-11-18T17:45:27;4.30;;;2.00;;
72394;SDS011;60384;48.152;11.614;2023-11-18T17:48:29;4.30;;;1.60;;
72394;SDS011;60384;48.152;11.614;2023-11-18T17:51:32;4.85;;;1.90;;
72394;SDS011;60384;48.152;11.614;2023-11-18T17:54:34;4.68;;;1.98;;
72394;SDS011;60384;48.152;11.614;2023-11-18T17:57:36;3.92;;;1.83;;
72394;SDS011;60384;48.152;11.614;2023-11-18T18:00:38;4.53;;;2.15;;
72394;SDS011;60384;48.152;11.614;2023-11-18T18:03:40;5.60;;;1.95;;
72394;SDS011;60384;48.152;11.614;2023-11-18T18:06:44;5.45;;;2.40;;
72394;SDS011;60384;48.152;11.614;2023-11-18T18:09:46;6.60;;;2.10;;
72394;SDS011;60384;48.152;11.614;2023-11-18T18:12:47;6.10;;;2.30;;
72394;SDS011;60384;48.152;11.614;2023-11-18T18:15:51;4.72;;;2.30;;
72394;SDS011;60384;48.152;11.614;2023-11-18T18:21:56;8.45;;;3.53;;
72394;SDS011;60384;48.152;11.614;2023-11-18T18:24:58;9.48;;;3.17;;
72394;SDS011;60384;48.152;11.614;2023-11-18T18:28:00;7.90;;;3.05;;
72394;SDS011;60384;48.152;11.614;2023-11-18T18:31:04;4.63;;;2.08;;
72394;SDS011;60384;48.152;11.614;2023-11-18T18:34:06;5.60;;;2.00;;
72394;SDS011;60384;48.152;11.614;2023-11-18T18:37:10;5.03;;;1.95;;
72394;SDS011;60384;48.152;11.614;2023-11-18T18:40:12;6.00;;;2.22;;
72394;SDS011;60384;48.152;11.614;2023-11-18T18:43:15;5.95;;;2.28;;
72394;SDS011;60384;48.152;11.614;2023-11-18T18:46:17;6.55;;;2.28;;
72394;SDS011;60384;48.152;11.614;2023-11-18T18:49:19;5.03;;;2.13;;
72394;SDS011;60384;48.152;11.614;2023-11-18T18:52:22;4.50;;;2.00;;
72394;SDS011;60384;48.152;11.614;2023-11-18T18:55:25;5.30;;;2.15;;
72394;SDS011;60384;48.152;11.614;2023-11-18T18:58:27;3.83;;;1.65;;
72394;SDS011;60384;48.152;11.614;2023-11-18T19:01:29;4.30;;;1.80;;
72394;SDS011;60384;48.152;11.614;2023-11-18T19:04:31;3.08;;;1.35;;
72394;SDS011;60384;48.152;11.614;2023-11-18T19:07:34;3.75;;;1.65;;
72394;SDS011;60384;48.152;11.614;2023-11-18T19:10:37;4.05;;;1.65;;
72394;SDS011;60384;48.152;11.614;2023-11-18T19:13:39;4.35;;;1.50;;
72394;SDS011;60384;48.152;11.614;2023-11-18T19:16:41;4.20;;;1.55;;
72394;SDS011;60384;48.152;11.614;2023-11-18T19:19:44;3.40;;;1.48;;
72394;SDS011;60384;48.152;11.614;2023-11-18T19:22:47;3.45;;;1.25;;
72394;SDS011;60384;48.152;11.614;2023-11-18T19:25:50;2.28;;;1.00;;
72394;SDS011;60384;48.152;11.614;2023-11-18T19:28:52;3.05;;;1.30;;
72394;SDS011;60384;48.152;11.614;2023-11-18T19:31:54;3.65;;;1.13;;
72394;SDS011;60384;48.152;11.614;2023-11-18T19:38:00;2.70;;;1.08;;
72394;SDS011;60384;48.152;11.614;2023-11-18T19:41:04;1.77;;;1.15;;
72394;SDS011;60384;48.152;11.614;2023-11-18T19:44:06;3.65;;;0.90;;
72394;SDS011;60384;48.152;11.614;2023-11-18T19:47:08;4.07;;;1.10;;
72394;SDS011;60384;48.152;11.614;2023-11-18T19:50:11;2.13;;;0.98;;
72394;SDS011;60384;48.152;11.614;2023-11-18T19:56:17;2.47;;;0.95;;
72394;SDS011;60384;48.152;11.614;2023-11-18T19:59:19;2.90;;;1.10;;
72394;SDS011;60384;48.152;11.614;2023-11-18T20:02:21;2.15;;;0.90;;
72394;SDS011;60384;48.152;11.614;2023-11-18T20:05:23;2.70;;;1.27;;
72394;SDS011;60384;48.152;11.614;2023-11-18T20:08:27;2.22;;;1.00;;
72394;SDS011;60384;48.152;11.614;2023-11-18T20:11:29;2.85;;;1.15;;
72394;SDS011;60384;48.152;11.614;2023-11-18T20:14:31;2.28;;;0.90;;
72394;SDS011;60384;48.152;11.614;2023-11-18T20:17:33;3.05;;;1.10;;
72394;SDS011;60384;48.152;11.614;2023-11-18T20:20:35;2.17;;;0.90;;
72394;SDS011;60384;48.152;11.614;2023-11-18T20:23:38;1.63;;;0.90;;
72394;SDS011;60384;48.152;11.614;2023-11-18T20:26:40;2.72;;;1.20;;
72394;SDS011;60384;48.152;11.614;2023-11-18T20:32:44;1.55;;;0.80;;
72394;SDS011;60384;48.152;11.614;2023-11-18T20:35:46;2.80;;;0.88;;
72394;SDS011;60384;48.152;11.614;2023-11-18T20:38:49;1.50;;;0.93;;
72394;SDS011;60384;48.152;11.614;2023-11-18T20:41:51;2.97;;;1.13;;
72394;SDS011;60384;48.152;11.614;2023-11-18T20:44:54;4.10;;;1.23;;
72394;SDS011;60384;48.152;11.614;2023-11-18T20:47:56;3.13;;;1.20;;
72394;SDS011;60384;48.152;11.614;2023-11-18T20:50:58;2.05;;;1.00;;
72394;SDS011;60384;48.152;11.614;2023-11-18T20:54:01;2.58;;;1.17;;
72394;SDS011;60384;48.152;11.614;2023-11-18T20:57:04;3.88;;;1.05;;
72394;SDS011;60384;48.152;11.614;2023-11-18T21:00:07;1.75;;;0.80;;
72394;SDS011;60384;48.152;11.614;2023-11-18T21:03:10;2.58;;;1.10;;
72394;SDS011;60384;48.152;11.614;2023-11-18T21:06:11;3.03;;;1.25;;
72394;SDS011;60384;48.152;11.614;2023-11-18T21:12:17;1.92;;;0.82;;
72394;SDS011;60384;48.152;11.614;2023-11-18T21:15:19;3.53;;;1.20;;
72394;SDS011;60384;48.152;11.614;2023-11-18T21:18:21;2.55;;;0.98;;
72394;SDS011;60384;48.152;11.614;2023-11-18T21:21:23;0.85;;;0.52;;
72394;SDS011;60384;48.152;11.614;2023-11-18T21:24:27;2.13;;;1.00;;
72394;SDS011;60384;48.152;11.614;2023-11-18T21:27:29;2.05;;;0.95;;
72394;SDS011;60384;48.152;11.614;2023-11-18T21:30:30;1.48;;;0.95;;
72394;SDS011;60384;48.152;11.614;2023-11-18T21:33:33;2.70;;;0.90;;
72394;SDS011;60384;48.152;11.614;2023-11-18T21:36:35;1.88;;;0.85;;
72394;SDS011;60384;48.152;11.614;2023-11-18T21:39:39;1.60;;;0.90;;
72394;SDS011;60384;48.152;11.614;2023-11-18T21:42:41;2.80;;;1.02;;
72394;SDS011;60384;48.152;11.614;2023-11-18T21:45:47;1.98;;;0.98;;
72394;SDS011;60384;48.152;11.614;2023-11-18T21:48:50;3.53;;;1.20;;
72394;SDS011;60384;48.152;11.614;2023-11-18T21:51:54;2.40;;;1.40;;
72394;SDS011;60384;48.152;11.614;2023-11-18T21:55:09;2.40;;;1.02;;
72394;SDS011;60384;48.152;11.614;2023-11-18T21:58:13;2.58;;;1.02;;
72394;SDS011;60384;48.152;11.614;2023-11-18T22:01:15;4.35;;;1.35;;
72394;SDS011;60384;48.152;11.614;2023-11-18T22:04:18;3.13;;;1.30;;
72394;SDS011;60384;48.152;11.614;2023-11-18T22:07:20;3.38;;;1.17;;
72394;SDS011;60384;48.152;11.614;2023-11-18T22:10:23;2.65;;;1.02;;
72394;SDS011;60384;48.152;11.614;2023-11-18T22:13:25;4.32;;;1.30;;
72394;SDS011;60384;48.152;11.614;2023-11-18T22:16:28;2.60;;;1.23;;
72394;SDS011;60384;48.152;11.614;2023-11-18T22:19:29;1.58;;;0.80;;
72394;SDS011;60384;48.152;11.614;2023-11-18T22:22:32;2.78;;;1.10;;
72394;SDS011;60384;48.152;11.614;2023-11-18T22:25:36;3.38;;;1.40;;
72394;SDS011;60384;48.152;11.614;2023-11-18T22:28:38;3.20;;;1.40;;
72394;SDS011;60384;48.152;11.614;2023-11-18T22:31:41;4.55;;;1.58;;
72394;SDS011;60384;48.152;11.614;2023-11-18T22:34:45;6.70;;;2.17;;
72394;SDS011;60384;48.152;11.614;2023-11-18T22:37:47;4.88;;;2.08;;
72394;SDS011;60384;48.152;11.614;2023-11-18T22:40:51;4.40;;;1.83;;
72394;SDS011;60384;48.152;11.614;2023-11-18T22:43:54;4.40;;;1.85;;
72394;SDS011;60384;48.152;11.614;2023-11-18T22:46:56;3.58;;;1.40;;
72394;SDS011;60384;48.152;11.614;2023-11-18T22:50:02;2.88;;;1.20;;
72394;SDS011;60384;48.152;11.614;2023-11-18T22:53:05;2.80;;;1.23;;
72394;SDS011;60384;48.152;11.614;2023-11-18T22:56:08;3.13;;;1.40;;
72394;SDS011;60384;48.152;11.614;2023-11-18T22:59:10;2.05;;;1.13;;
72394;SDS011;60384;48.152;11.614;2023-11-18T23:02:12;3.28;;;1.15;;
72394;SDS011;60384;48.152;11.614;2023-11-18T23:05:23;3.00;;;1.25;;
72394;SDS011;60384;48.152;11.614;2023-11-18T23:08:26;2.88;;;1.30;;
72394;SDS011;60384;48.152;11.614;2023-11-18T23:11:29;3.40;;;1.33;;
72394;SDS011;60384;48.152;11.614;2023-11-18T23:14:31;3.38;;;1.40;;
72394;SDS011;60384;48.152;11.614;2023-11-18T23:17:33;1.90;;;1.00;;
72394;SDS011;60384;48.152;11.614;2023-11-18T23:20:35;1.80;;;1.10;;
72394;SDS011;60384;48.152;11.614;2023-11-18T23:23:38;3.08;;;1.30;;
72394;SDS011;60384;48.152;11.614;2023-11-18T23:26:41;2.47;;;0.85;;
72394;SDS011;60384;48.152;11.614;2023-11-18T23:29:44;2.22;;;1.08;;
72394;SDS011;60384;48.152;11.614;2023-11-18T23:32:47;2.50;;;1.25;;
72394;SDS011;60384;48.152;11.614;2023-11-18T23:35:49;2.95;;;1.20;;
72394;SDS011;60384;48.152;11.614;2023-11-18T23:38:52;3.25;;;1.30;;
72394;SDS011;60384;48.152;11.614;2023-11-18T23:44:58;4.88;;;1.10;;
72394;SDS011;60384;48.152;11.614;2023-11-18T23:48:04;3.13;;;1.40;;
72394;SDS011;60384;48.152;11.614;2023-11-18T23:51:10;3.85;;;1.40;;
72394;SDS011;60384;48.152;11.614;2023-11-18T23:54:12;2.92;;;1.30;;
72394;SDS011;60384;48.152;11.614;2023-11-18T23:57:15;2.88;;;1.30;;
